Time;durP1;ratioP1;P1;durP2;ratioP2;P2;SDS_P1;SDS_P2;PMS_P1;PMS_P2;Temp;Humidity;BMP_temperature;BMP_pressure;BME280_temperature;BME280_humidity;BME280_pressure;Samples;Min_cycle;Max_cycle;Signal;HPM_P1;HPM_P2
2021/01/03 00:02:10;;;;;;;20.20;10.85;;;;;;;4.72;82.33;101953.95;1726291;83;25440;-56
2021/01/03 00:04:40;;;;;;;19.45;10.70;;;;;;;4.78;82.37;101956.81;1723635;83;27614;-56
2021/01/03 00:07:08;;;;;;;21.70;10.75;;;;;;;4.84;82.41;101956.52;1721931;83;25663;-56
2021/01/03 00:09:36;;;;;;;20.57;10.23;;;;;;;4.89;82.68;101948.31;1722549;83;25703;-56
2021/01/03 00:12:05;;;;;;;17.62;9.58;;;;;;;4.93;82.63;101949.92;1759037;81;25659;-56
2021/01/03 00:14:33;;;;;;;20.68;11.55;;;;;;;4.94;82.77;101940.50;1755533;81;25647;-56
2021/01/03 00:17:05;;;;;;;17.40;9.53;;;;;;;4.95;82.83;101944.91;1754691;81;27219;-56
2021/01/03 00:19:33;;;;;;;15.40;10.08;;;;;;;4.97;82.98;101945.70;1755166;81;25654;-56
2021/01/03 00:22:02;;;;;;;18.48;9.78;;;;;;;5.03;82.64;101949.86;1742384;80;25633;-55
2021/01/03 00:24:29;;;;;;;19.00;9.55;;;;;;;5.09;82.79;101951.38;1787582;79;25785;-55
2021/01/03 00:26:57;;;;;;;16.77;8.83;;;;;;;5.13;82.74;101959.17;1781123;79;26521;-56
2021/01/03 00:29:25;;;;;;;16.30;9.20;;;;;;;5.17;82.76;101956.77;1777447;80;27594;-56
2021/01/03 00:31:53;;;;;;;16.57;8.20;;;;;;;5.21;82.60;101949.94;1780106;79;26197;-56
2021/01/03 00:34:23;;;;;;;16.05;9.08;;;;;;;5.25;82.75;101945.72;1774853;80;25730;-56
2021/01/03 00:36:51;;;;;;;16.07;9.65;;;;;;;5.30;82.75;101951.72;1774726;79;25766;-56
2021/01/03 00:39:19;;;;;;;15.28;8.65;;;;;;;5.33;82.94;101942.22;1781843;79;25431;-56
2021/01/03 00:41:50;;;;;;;13.68;7.85;;;;;;;5.38;82.87;101942.48;1786268;78;27519;-56
2021/01/03 00:44:20;;;;;;;18.05;8.48;;;;;;;5.40;82.66;101944.61;1810023;78;25650;-57
2021/01/03 00:46:48;;;;;;;14.45;8.73;;;;;;;5.43;82.49;101937.32;1793573;79;25683;-57
2021/01/03 00:49:17;;;;;;;29.63;11.45;;;;;;;5.48;82.60;101939.77;1793875;79;25737;-57
2021/01/03 00:51:45;;;;;;;27.67;10.23;;;;;;;5.53;82.50;101935.06;1794177;79;26048;-56
2021/01/03 00:54:13;;;;;;;24.98;9.63;;;;;;;5.56;82.26;101923.39;1797052;79;29150;-55
2021/01/03 00:56:41;;;;;;;22.90;8.65;;;;;;;5.58;82.16;101931.71;1819856;78;25646;-57
2021/01/03 00:59:09;;;;;;;23.70;9.75;;;;;;;5.61;82.32;101931.54;1790960;79;25696;-57
2021/01/03 01:01:36;;;;;;;16.95;7.67;;;;;;;5.62;82.33;101924.41;1799133;79;26137;-57
2021/01/03 01:04:05;;;;;;;18.10;7.65;;;;;;;5.64;82.30;101922.05;1796922;79;25686;-56
2021/01/03 01:06:33;;;;;;;13.55;7.03;;;;;;;5.64;82.70;101918.05;1789659;79;28396;-56
2021/01/03 01:09:02;;;;;;;13.30;7.60;;;;;;;5.67;82.41;101926.38;1792803;79;25888;-57
2021/01/03 01:11:30;;;;;;;15.90;7.80;;;;;;;5.70;82.37;101925.34;1801704;79;25757;-56
2021/01/03 01:13:58;;;;;;;13.25;7.70;;;;;;;5.75;82.29;101930.01;1805581;79;25705;-57
2021/01/03 01:16:27;;;;;;;12.88;7.17;;;;;;;5.78;82.32;101928.53;1810326;78;25510;-57
2021/01/03 01:18:55;;;;;;;13.98;7.05;;;;;;;5.83;82.37;101930.48;1800110;78;27523;-56
2021/01/03 01:21:22;;;;;;;13.38;6.85;;;;;;;5.84;82.15;101921.54;1795505;79;25677;-57
2021/01/03 01:23:50;;;;;;;11.28;6.87;;;;;;;5.88;82.40;101931.11;1739810;82;25490;-57
2021/01/03 01:26:18;;;;;;;11.28;6.15;;;;;;;5.88;82.07;101925.77;1790060;79;25595;-57
2021/01/03 01:28:46;;;;;;;13.18;7.00;;;;;;;5.91;82.14;101924.28;1801661;79;25718;-57
2021/01/03 01:31:14;;;;;;;12.82;7.53;;;;;;;5.93;82.17;101922.41;1793386;79;27608;-56
2021/01/03 01:33:42;;;;;;;11.48;7.40;;;;;;;5.95;82.13;101931.67;1797702;79;25750;-57
2021/01/03 01:36:11;;;;;;;9.48;6.45;;;;;;;5.99;82.19;101920.36;1801489;79;25729;-57
2021/01/03 01:38:39;;;;;;;9.20;5.92;;;;;;;6.02;82.22;101920.25;1775327;79;25639;-57
2021/01/03 01:41:07;;;;;;;9.75;5.47;;;;;;;6.04;82.49;101919.22;1792607;78;25925;-57
2021/01/03 01:43:35;;;;;;;9.23;5.95;;;;;;;6.05;82.33;101923.62;1770053;81;27508;-57
2021/01/03 01:46:05;;;;;;;9.90;5.15;;;;;;;6.09;82.32;101918.53;1771222;79;26157;-57
2021/01/03 01:48:37;;;;;;;7.75;4.22;;;;;;;6.13;82.58;101921.02;1777694;80;25639;-56
2021/01/03 01:51:10;;;;;;;9.03;4.42;;;;;;;6.13;82.51;101911.22;1780475;79;26280;-57
2021/01/03 01:54:08;;;;;;;10.53;5.35;;;;;;;6.17;82.43;101915.92;1773837;79;26042;-56
2021/01/03 01:56:44;;;;;;;15.88;5.60;;;;;;;6.19;82.46;101916.23;1777854;79;26753;-57
2021/01/03 01:59:47;;;;;;;11.35;6.00;;;;;;;6.23;82.17;101911.59;1775538;79;26240;-56
2021/01/03 02:02:41;;;;;;;11.25;5.67;;;;;;;6.26;82.22;101918.13;1807270;78;25498;-55
2021/01/03 02:05:27;;;;;;;10.98;5.53;;;;;;;6.30;82.32;101904.13;1803590;79;25765;-57
2021/01/03 02:08:09;;;;;;;8.53;5.05;;;;;;;6.31;82.25;101916.55;1786281;79;26285;-55
2021/01/03 02:10:45;;;;;;;10.28;5.20;;;;;;;6.32;82.13;101914.27;1775236;79;28395;-56
2021/01/03 02:13:30;;;;;;;9.80;5.62;;;;;;;6.34;82.16;101908.34;1791530;79;26126;-54
2021/01/03 02:16:06;;;;;;;8.35;4.78;;;;;;;6.36;82.04;101906.47;1781169;79;25652;-56
2021/01/03 02:18:34;;;;;;;6.97;3.87;;;;;;;6.39;82.18;101899.14;1777320;79;26713;-56
2021/01/03 02:21:33;;;;;;;8.50;3.40;;;;;;;6.42;82.12;101900.33;1800556;79;26536;-56
2021/01/03 02:24:24;;;;;;;7.33;3.70;;;;;;;6.45;82.00;101907.31;1736844;82;27538;-56
2021/01/03 02:27:16;;;;;;;6.20;3.40;;;;;;;6.50;81.81;101912.42;1719054;82;25859;-56
2021/01/03 02:29:46;;;;;;;6.33;3.77;;;;;;;6.51;81.73;101904.30;1744014;81;25722;-56
2021/01/03 02:32:16;;;;;;;7.40;3.77;;;;;;;6.56;81.64;101904.94;1765715;80;25680;-56
2021/01/03 02:34:47;;;;;;;11.63;4.45;;;;;;;6.59;81.53;101903.91;1697748;83;25799;-55
2021/01/03 02:37:26;;;;;;;6.72;3.58;;;;;;;6.62;81.42;101901.53;1789565;79;27575;-57
2021/01/03 02:40:12;;;;;;;6.58;3.90;;;;;;;6.65;81.38;101898.22;1780300;79;25750;-56
2021/01/03 02:42:42;;;;;;;11.12;3.45;;;;;;;6.65;81.35;101900.89;1771543;79;25765;-56
2021/01/03 02:45:24;;;;;;;6.72;3.83;;;;;;;6.66;81.31;101894.60;1796462;78;25547;-56
2021/01/03 02:47:55;;;;;;;8.60;4.00;;;;;;;6.68;81.29;101897.22;1797709;79;25412;-57
2021/01/03 02:50:26;;;;;;;6.72;3.92;;;;;;;6.71;81.24;101894.35;1767225;79;26798;-56
2021/01/03 02:52:54;;;;;;;7.20;3.98;;;;;;;6.71;81.30;101887.21;1788804;80;25660;-56
2021/01/03 02:55:22;;;;;;;7.95;4.53;;;;;;;6.72;81.32;101874.69;1755377;80;25640;-56
2021/01/03 02:57:50;;;;;;;10.48;4.62;;;;;;;6.75;81.37;101883.89;1789848;79;25753;-56
2021/01/03 03:00:27;;;;;;;9.05;4.55;;;;;;;6.76;81.46;101884.28;1801611;79;25532;-56
2021/01/03 03:02:56;;;;;;;8.48;4.87;;;;;;;6.77;81.44;101881.97;1785117;79;28465;-56
2021/01/03 03:05:24;;;;;;;9.70;5.05;;;;;;;6.78;81.43;101882.37;1773779;79;26172;-56
2021/01/03 03:07:53;;;;;;;9.20;5.08;;;;;;;6.79;81.46;101869.39;1766433;79;25674;-55
2021/01/03 03:10:23;;;;;;;11.40;6.03;;;;;;;6.80;81.41;101871.61;1766536;79;25640;-57
2021/01/03 03:12:54;;;;;;;13.18;5.15;;;;;;;6.82;81.46;101875.03;1784248;79;26171;-56
2021/01/03 03:15:26;;;;;;;13.43;5.55;;;;;;;6.84;81.45;101862.45;1770014;79;28490;-56
2021/01/03 03:17:54;;;;;;;10.15;5.17;;;;;;;6.86;81.45;101858.73;1784592;79;26254;-57
2021/01/03 03:20:23;;;;;;;12.15;6.00;;;;;;;6.89;81.47;101868.42;1765396;80;26382;-56
2021/01/03 03:22:51;;;;;;;12.00;5.05;;;;;;;6.90;81.50;101871.49;1739569;81;26413;-57
2021/01/03 03:25:22;;;;;;;12.13;5.62;;;;;;;6.91;81.46;101865.16;1741571;81;25767;-56
2021/01/03 03:27:50;;;;;;;13.43;5.80;;;;;;;6.93;81.42;101871.78;1757304;81;28469;-56
2021/01/03 03:30:22;;;;;;;13.32;5.75;;;;;;;6.94;81.50;101867.68;1725192;82;25730;-56
2021/01/03 03:32:52;;;;;;;15.80;7.17;;;;;;;6.96;81.47;101864.45;1720021;83;25926;-56
2021/01/03 03:35:28;;;;;;;12.45;5.85;;;;;;;7.00;81.47;101866.48;1745099;81;25550;-56
2021/01/03 03:37:57;;;;;;;13.98;5.55;;;;;;;7.01;81.42;101861.52;1741858;81;26072;-55
2021/01/03 03:40:25;;;;;;;16.35;6.08;;;;;;;7.03;81.46;101861.81;1740485;81;28484;-56
2021/01/03 03:42:53;;;;;;;15.65;6.50;;;;;;;7.05;81.40;101855.91;1727627;82;25700;-56
2021/01/03 03:45:22;;;;;;;12.85;5.00;;;;;;;7.08;81.32;101871.41;1734696;81;25699;-56
2021/01/03 03:47:50;;;;;;;11.33;5.65;;;;;;;7.11;81.26;101860.52;1747200;82;25752;-56
2021/01/03 03:50:22;;;;;;;12.40;5.55;;;;;;;7.14;81.35;101867.89;1741183;82;25653;-56
2021/01/03 03:52:52;;;;;;;11.27;6.30;;;;;;;7.15;81.30;101856.23;1771001;79;28478;-56
2021/01/03 03:55:20;;;;;;;12.28;5.72;;;;;;;7.14;81.36;101863.87;1785932;79;25625;-56
2021/01/03 03:57:48;;;;;;;13.25;5.37;;;;;;;7.19;81.39;101855.12;1798129;79;25641;-55
2021/01/03 04:00:21;;;;;;;15.70;5.55;;;;;;;7.24;81.41;101860.22;1808171;78;25508;-57
2021/01/03 04:02:49;;;;;;;10.78;5.45;;;;;;;7.23;81.29;101869.65;1790263;79;25711;-56
2021/01/03 04:05:23;;;;;;;12.70;5.50;;;;;;;7.26;81.33;101865.47;1787724;79;28487;-56
2021/01/03 04:07:51;;;;;;;11.10;6.08;;;;;;;7.27;81.28;101869.88;1793576;79;25761;-56
2021/01/03 04:10:20;;;;;;;10.10;4.90;;;;;;;7.27;81.36;101868.05;1779532;79;25747;-55
2021/01/03 04:12:49;;;;;;;9.90;5.03;;;;;;;7.27;81.35;101877.42;1767638;79;25656;-56
2021/01/03 04:15:19;;;;;;;6.58;3.90;;;;;;;7.29;81.35;101864.81;1786108;79;25706;-56
2021/01/03 04:17:47;;;;;;;13.05;4.10;;;;;;;7.32;81.33;101879.83;1800459;79;27637;-56
2021/01/03 04:20:18;;;;;;;7.28;4.20;;;;;;;7.33;81.28;101867.72;1793699;79;25652;-57
2021/01/03 04:22:47;;;;;;;9.05;4.80;;;;;;;7.36;81.24;101866.67;1785918;79;25730;-57
2021/01/03 04:25:16;;;;;;;9.45;4.62;;;;;;;7.36;81.27;101855.48;1764771;79;26423;-56
2021/01/03 04:27:45;;;;;;;9.45;4.47;;;;;;;7.38;81.24;101867.91;1727550;83;26108;-56
2021/01/03 04:30:16;;;;;;;8.95;5.10;;;;;;;7.40;81.22;101864.68;1714881;82;27976;-57
2021/01/03 04:32:44;;;;;;;9.93;4.72;;;;;;;7.38;81.27;101863.44;1777932;79;25679;-56
2021/01/03 04:35:13;;;;;;;9.80;5.00;;;;;;;7.40;81.22;101857.50;1777359;79;25643;-56
2021/01/03 04:37:42;;;;;;;14.05;6.87;;;;;;;7.41;81.13;101857.89;1753720;81;25762;-56
2021/01/03 04:40:23;;;;;;;14.03;5.55;;;;;;;7.42;80.98;101858.28;1784055;79;26208;-55
2021/01/03 04:42:55;;;;;;;12.45;5.55;;;;;;;7.42;81.01;101858.28;1779098;79;27524;-57
2021/01/03 04:45:40;;;;;;;11.93;5.90;;;;;;;7.42;80.96;101848.91;1796627;79;25669;-56
2021/01/03 04:48:19;;;;;;;8.93;5.62;;;;;;;7.46;80.97;101847.80;1788110;79;25458;-56
2021/01/03 04:50:56;;;;;;;13.25;6.37;;;;;;;7.43;80.89;101847.96;1792474;79;26444;-56
2021/01/03 04:53:41;;;;;;;13.68;5.87;;;;;;;7.45;80.76;101851.42;1787298;79;25444;-56
2021/01/03 04:56:20;;;;;;;11.05;6.40;;;;;;;7.47;80.48;101845.50;1771424;78;28264;-57
2021/01/03 04:58:59;;;;;;;14.85;7.30;;;;;;;7.49;80.40;101846.25;1771927;80;25639;-56
2021/01/03 05:01:54;;;;;;;15.55;7.05;;;;;;;7.52;80.21;101847.92;1771452;80;25841;-56
2021/01/03 05:04:46;;;;;;;9.88;6.62;;;;;;;7.55;79.95;101851.73;1770182;79;26428;-57
2021/01/03 05:07:30;;;;;;;15.95;7.45;;;;;;;7.61;79.53;101849.17;1793488;79;25679;-56
2021/01/03 05:10:21;;;;;;;11.00;6.37;;;;;;;7.62;79.51;101843.72;1781798;79;27629;-56
2021/01/03 05:13:00;;;;;;;13.08;7.17;;;;;;;7.65;79.43;101849.39;1767421;79;25702;-57
2021/01/03 05:15:33;;;;;;;13.72;7.00;;;;;;;7.68;79.21;101847.85;1778163;79;25781;-56
2021/01/03 05:18:04;;;;;;;;;;;;;;;7.67;79.13;101841.65;1796402;79;25693;-56
2021/01/03 05:20:33;;;;;;;12.55;5.55;;;;;;;7.65;78.83;101839.53;1796260;79;25402;-57
2021/01/03 05:23:21;;;;;;;13.65;7.30;;;;;;;7.65;78.57;101844.04;1799904;79;27518;-56
2021/01/03 05:25:51;;;;;;;15.58;6.97;;;;;;;7.63;78.62;101837.41;1770873;79;25708;-56
2021/01/03 05:28:30;;;;;;;15.83;5.60;;;;;;;7.61;78.69;101831.77;1799705;78;25684;-57
2021/01/03 05:31:18;;;;;;;13.03;5.85;;;;;;;7.58;78.49;101830.14;1797565;79;25610;-57
2021/01/03 05:33:57;;;;;;;13.18;5.95;;;;;;;7.57;78.57;101834.26;1801627;79;26231;-56
2021/01/03 05:36:47;;;;;;;13.83;6.58;;;;;;;7.55;78.60;101833.48;1789339;79;27522;-56
2021/01/03 05:39:24;;;;;;;18.05;6.70;;;;;;;7.55;78.76;101841.52;1773912;79;25642;-56
2021/01/03 05:42:00;;;;;;;12.95;5.95;;;;;;;7.57;78.73;101851.66;1766148;79;25738;-56
2021/01/03 05:44:42;;;;;;;13.60;5.83;;;;;;;7.60;78.58;101852.80;1745325;80;25705;-57
2021/01/03 05:47:21;;;;;;;23.18;6.78;;;;;;;7.62;78.60;101856.26;1718490;82;26140;-56
2021/01/03 05:50:28;;;;;;;10.70;6.03;;;;;;;7.64;78.44;101849.00;1712431;82;27597;-56
2021/01/03 05:53:10;;;;;;;13.03;6.70;;;;;;;7.64;78.26;101855.21;1662411;85;25752;-56
2021/01/03 05:55:42;;;;;;;13.40;6.10;;;;;;;7.66;78.19;101860.01;1657604;84;25875;-56
2021/01/03 05:58:24;;;;;;;18.82;7.00;;;;;;;7.67;78.25;101836.75;1681837;84;26009;-56
2021/01/03 06:01:22;;;;;;;13.48;7.30;;;;;;;7.73;78.18;101829.71;1833054;78;25581;-56
2021/01/03 06:04:07;;;;;;;9.73;5.12;;;;;;;7.68;77.78;101838.02;1774029;79;25635;-57
2021/01/03 06:06:49;;;;;;;12.53;5.35;;;;;;;7.72;77.28;101853.42;1774695;79;27583;-57
2021/01/03 06:09:25;;;;;;;13.15;5.72;;;;;;;7.73;77.31;101856.50;1792185;78;26110;-57
2021/01/03 06:12:22;;;;;;;11.25;5.28;;;;;;;7.76;76.84;101849.59;1780724;79;25485;-57
2021/01/03 06:14:57;;;;;;;13.62;5.45;;;;;;;7.79;76.65;101852.59;1774041;79;25663;-57
2021/01/03 06:17:45;;;;;;;11.78;5.25;;;;;;;7.79;76.95;101846.75;1788992;79;25718;-57
2021/01/03 06:20:25;;;;;;;12.68;6.15;;;;;;;7.81;76.51;101840.83;1788994;79;27525;-57
2021/01/03 06:23:19;;;;;;;13.53;5.58;;;;;;;7.82;76.52;101848.38;1785822;79;25691;-57
2021/01/03 06:26:03;;;;;;;12.70;4.87;;;;;;;7.82;76.36;101854.61;1797938;79;25706;-57
2021/01/03 06:28:45;;;;;;;15.93;5.60;;;;;;;7.86;75.94;101851.73;1753547;80;25745;-57
2021/01/03 06:31:30;;;;;;;13.18;6.17;;;;;;;7.86;76.11;101853.06;1789319;79;25752;-57
2021/01/03 06:34:19;;;;;;;12.05;5.58;;;;;;;7.86;75.96;101859.77;1802405;79;27594;-57
2021/01/03 06:36:59;;;;;;;10.82;5.10;;;;;;;7.88;76.00;101849.83;1805163;79;26217;-57
2021/01/03 06:39:50;;;;;;;12.93;5.37;;;;;;;7.90;75.83;101859.98;1777175;79;25701;-57
2021/01/03 06:42:45;;;;;;;10.10;5.12;;;;;;;7.93;75.35;101865.17;1776161;79;25656;-57
2021/01/03 06:45:35;;;;;;;14.47;4.85;;;;;;;7.94;75.45;101854.34;1790072;78;25658;-57
2021/01/03 06:48:11;;;;;;;10.30;5.03;;;;;;;7.97;75.45;101865.34;1773575;80;26782;-56
2021/01/03 06:51:18;;;;;;;10.58;4.85;;;;;;;7.99;75.26;101866.12;1788182;79;25650;-56
2021/01/03 06:54:40;;;;;;;14.90;5.03;;;;;;;8.02;75.16;101871.31;1805457;79;25678;-57
2021/01/03 06:58:06;;;;;;;12.65;5.47;;;;;;;8.07;75.04;101869.70;1805392;79;26259;-57
2021/01/03 07:00:49;;;;;;;14.00;4.78;;;;;;;8.11;74.60;101875.23;1752346;81;26227;-57
2021/01/03 07:03:30;;;;;;;13.62;4.00;;;;;;;8.17;74.41;101869.98;1752527;81;27463;-57
2021/01/03 07:06:05;;;;;;;12.00;4.95;;;;;;;8.21;74.25;101873.73;1796330;79;26163;-57
2021/01/03 07:08:40;;;;;;;7.20;4.55;;;;;;;8.28;74.19;101874.22;1805586;79;25709;-57
2021/01/03 07:11:42;;;;;;;13.08;4.85;;;;;;;8.34;73.80;101868.97;1801076;79;26228;-57
2021/01/03 07:14:28;;;;;;;16.95;5.37;;;;;;;8.40;73.67;101869.42;1761769;80;25927;-56
2021/01/03 07:17:01;;;;;;;18.95;5.47;;;;;;;8.49;73.43;101879.23;1773038;80;26951;-56
2021/01/03 07:19:55;;;;;;;19.48;5.75;;;;;;;8.57;73.06;101886.31;1773092;80;25612;-56
2021/01/03 07:22:37;;;;;;;16.93;4.70;;;;;;;8.60;73.10;101876.28;1774886;79;28097;-56
2021/01/03 07:25:29;;;;;;;9.48;4.83;;;;;;;8.68;72.72;101870.91;1783933;79;25616;-56
2021/01/03 07:28:09;;;;;;;11.83;4.78;;;;;;;8.72;72.87;101875.98;1774041;79;25686;-57
2021/01/03 07:31:12;;;;;;;13.03;5.25;;;;;;;8.82;72.44;101878.94;1802008;79;28829;-57
2021/01/03 07:34:04;;;;;;;20.17;6.35;;;;;;;8.86;72.49;101878.25;1804913;79;25422;-56
2021/01/03 07:36:52;;;;;;;15.53;6.45;;;;;;;8.89;71.47;101872.70;1804814;79;25501;-55
2021/01/03 07:39:32;;;;;;;19.90;7.58;;;;;;;8.90;71.51;101865.04;1804551;79;25794;-56
2021/01/03 07:42:23;;;;;;;14.23;6.80;;;;;;;8.89;71.51;101865.50;1805006;79;26039;-56
2021/01/03 07:44:54;;;;;;;13.83;6.62;;;;;;;8.88;71.28;101863.77;1804748;79;27580;-56
2021/01/03 07:47:52;;;;;;;19.52;5.85;;;;;;;8.89;71.70;101860.63;1804911;79;25699;-57
2021/01/03 07:50:34;;;;;;;12.60;4.70;;;;;;;8.91;71.37;101860.91;1804894;79;25659;-56
2021/01/03 07:53:29;;;;;;;11.43;5.17;;;;;;;8.92;71.11;101863.97;1804877;79;25610;-56
2021/01/03 07:56:26;;;;;;;13.40;5.47;;;;;;;8.93;71.22;101863.02;1804888;79;25706;-57
2021/01/03 07:58:57;;;;;;;10.82;4.90;;;;;;;8.98;71.30;101870.77;1804837;79;28456;-56
2021/01/03 08:01:33;;;;;;;11.93;4.97;;;;;;;9.02;71.04;101868.25;1810425;79;25757;-56
2021/01/03 08:04:27;;;;;;;9.75;5.22;;;;;;;9.08;70.80;101858.48;1808938;79;25465;-56
2021/01/03 08:07:15;;;;;;;10.55;4.65;;;;;;;9.10;71.10;101859.72;1779697;79;25631;-56
2021/01/03 08:09:43;;;;;;;10.43;4.97;;;;;;;9.16;70.72;101872.73;1775781;79;25880;-56
2021/01/03 08:12:34;;;;;;;11.83;6.00;;;;;;;9.21;70.91;101874.66;1716405;82;27605;-56
2021/01/03 08:15:11;;;;;;;15.68;6.00;;;;;;;9.28;70.97;101875.09;1779665;79;25607;-57
2021/01/03 08:17:42;;;;;;;12.30;5.22;;;;;;;9.34;70.84;101875.17;1779636;79;25700;-56
2021/01/03 08:20:22;;;;;;;8.13;4.33;;;;;;;9.37;70.55;101875.83;1779405;80;26099;-57
2021/01/03 08:22:50;;;;;;;16.12;4.28;;;;;;;9.43;70.71;101875.91;1806292;79;25666;-57
2021/01/03 08:25:24;;;;;;;14.25;4.62;;;;;;;9.44;71.06;101869.58;1811551;79;27497;-57
2021/01/03 08:28:09;;;;;;;16.50;5.22;;;;;;;9.48;70.98;101873.80;1811442;79;25692;-57
2021/01/03 08:30:38;;;;;;;19.90;5.40;;;;;;;9.58;71.21;101876.72;1811275;79;25642;-56
2021/01/03 08:33:15;;;;;;;15.90;4.95;;;;;;;9.67;70.92;101877.94;1811388;79;25630;-57
2021/01/03 08:35:43;;;;;;;12.47;5.85;;;;;;;9.77;70.68;101876.83;1811514;79;25792;-56
2021/01/03 08:38:11;;;;;;;17.95;6.92;;;;;;;9.84;70.44;101874.97;1811447;79;28488;-57
2021/01/03 08:40:43;;;;;;;20.45;6.10;;;;;;;9.86;70.29;101869.48;1797000;79;25496;-57
2021/01/03 08:43:20;;;;;;;18.42;6.28;;;;;;;9.87;69.95;101868.52;1779327;79;25732;-57
2021/01/03 08:45:50;;;;;;;16.12;5.75;;;;;;;9.80;70.23;101870.75;1779454;80;25743;-57
2021/01/03 08:48:23;;;;;;;16.50;4.95;;;;;;;9.80;70.41;101865.88;1779454;79;25723;-57
2021/01/03 08:51:13;;;;;;;11.20;4.92;;;;;;;9.80;70.47;101872.59;1781010;79;27514;-56
2021/01/03 08:53:42;;;;;;;11.40;4.83;;;;;;;9.82;70.79;101869.30;1801188;79;25577;-57
2021/01/03 08:56:23;;;;;;;15.68;5.53;;;;;;;9.84;70.52;101858.84;1801235;79;25644;-56
2021/01/03 08:58:51;;;;;;;23.90;7.08;;;;;;;9.83;70.89;101861.16;1801104;79;25442;-57
2021/01/03 09:01:33;;;;;;;16.00;6.40;;;;;;;9.86;70.84;101860.08;1794873;79;25501;-56
2021/01/03 09:04:08;;;;;;;9.75;5.40;;;;;;;9.85;71.12;101857.01;1791895;80;27507;-56
2021/01/03 09:06:37;;;;;;;13.78;6.37;;;;;;;9.88;71.20;101856.80;1791643;80;25674;-57
2021/01/03 09:09:15;;;;;;;18.00;6.30;;;;;;;9.90;71.31;101858.91;1779025;80;25774;-56
2021/01/03 09:11:57;;;;;;;15.50;6.60;;;;;;;9.89;71.08;101861.69;1762244;81;26184;-57
2021/01/03 09:14:42;;;;;;;12.53;7.42;;;;;;;9.88;71.28;101851.44;1762562;80;26149;-56
2021/01/03 09:17:23;;;;;;;20.75;8.05;;;;;;;9.87;71.44;101851.05;1762215;81;27520;-58
2021/01/03 09:20:02;;;;;;;18.17;7.97;;;;;;;9.87;71.33;101858.62;1741069;81;26558;-56
2021/01/03 09:22:35;;;;;;;20.02;8.38;;;;;;;9.85;71.16;101851.63;1772473;80;25843;-57
2021/01/03 09:25:15;;;;;;;21.52;10.05;;;;;;;9.79;71.49;101846.69;1783437;79;25431;-57
2021/01/03 09:27:43;;;;;;;26.48;10.00;;;;;;;9.74;71.80;101845.66;1780722;79;26583;-56
2021/01/03 09:30:31;;;;;;;20.23;8.53;;;;;;;9.73;71.83;101850.64;1778977;80;27456;-56
2021/01/03 09:33:23;;;;;;;26.37;11.60;;;;;;;9.73;71.97;101841.24;1791995;79;25663;-56
2021/01/03 09:36:15;;;;;;;31.05;13.03;;;;;;;9.79;71.94;101839.97;1793887;79;25651;-57
2021/01/03 09:38:57;;;;;;;16.27;7.55;;;;;;;9.82;72.02;101836.58;1788603;79;25881;-57
2021/01/03 09:41:39;;;;;;;15.40;7.35;;;;;;;9.83;72.13;101830.25;1791690;79;25716;-56
2021/01/03 09:44:37;;;;;;;15.38;5.30;;;;;;;9.92;72.22;101830.58;1724246;83;28039;-57
2021/01/03 09:47:10;;;;;;;19.62;5.10;;;;;;;10.00;71.17;101825.53;1733126;82;25717;-57
2021/01/03 09:49:52;;;;;;;13.75;3.85;;;;;;;10.03;70.75;101827.52;1792120;80;25630;-56
2021/01/03 09:52:37;;;;;;;16.90;6.95;;;;;;;10.06;70.48;101819.71;1791431;80;25644;-57
2021/01/03 09:55:31;;;;;;;17.80;5.55;;;;;;;10.12;71.10;101827.84;1780921;79;26112;-56
2021/01/03 09:58:08;;;;;;;16.57;7.35;;;;;;;10.18;70.97;101826.94;1775186;79;27494;-57
2021/01/03 10:00:58;;;;;;;14.23;6.62;;;;;;;10.26;71.08;101828.22;1807193;77;26056;-56
2021/01/03 10:03:43;;;;;;;22.62;8.20;;;;;;;10.28;70.48;101818.22;1829483;78;25635;-57
2021/01/03 10:06:22;;;;;;;12.15;4.70;;;;;;;10.27;70.39;101815.15;1811204;78;25722;-57
2021/01/03 10:09:12;;;;;;;14.13;5.92;;;;;;;10.26;70.47;101812.96;1782902;78;25876;-56
2021/01/03 10:11:41;;;;;;;13.35;6.40;;;;;;;10.24;70.73;101816.23;1762548;80;27600;-56
2021/01/03 10:14:14;;;;;;;15.32;7.08;;;;;;;10.23;70.87;101807.78;1762083;81;25659;-56
2021/01/03 10:16:43;;;;;;;14.23;5.25;;;;;;;10.24;71.04;101796.06;1753876;80;25443;-57
2021/01/03 10:19:20;;;;;;;14.18;5.97;;;;;;;10.22;69.22;101791.27;1766718;80;26617;-57
2021/01/03 10:21:49;;;;;;;15.20;6.58;;;;;;;10.17;69.38;101792.09;1765960;80;25625;-57
2021/01/03 10:24:24;;;;;;;13.98;5.95;;;;;;;10.18;69.90;101786.59;1793658;80;26743;-57
2021/01/03 10:27:13;;;;;;;12.50;5.12;;;;;;;10.21;69.60;101784.67;1766521;80;26089;-56
2021/01/03 10:29:42;;;;;;;13.35;4.80;;;;;;;10.24;69.83;101780.39;1765157;81;25665;-57
2021/01/03 10:32:10;;;;;;;12.23;4.70;;;;;;;10.24;69.95;101772.33;1765088;81;25765;-56
2021/01/03 10:34:38;;;;;;;11.43;4.08;;;;;;;10.24;69.57;101770.52;1765184;81;25495;-57
2021/01/03 10:37:06;;;;;;;6.70;3.62;;;;;;;10.20;69.59;101757.40;1765043;81;27514;-56
2021/01/03 10:39:34;;;;;;;31.37;7.65;;;;;;;10.20;68.97;101753.37;1797257;78;25619;-57
2021/01/03 10:42:06;;;;;;;11.38;4.17;;;;;;;10.20;68.87;101747.98;1796098;78;25500;-56
2021/01/03 10:44:34;;;;;;;9.90;2.72;;;;;;;10.18;69.10;101754.33;1799340;78;25740;-56
2021/01/03 10:47:04;;;;;;;12.60;2.65;;;;;;;10.18;67.99;101753.45;1824331;78;25736;-56
2021/01/03 10:49:31;;;;;;;11.97;3.00;;;;;;;10.16;68.28;101761.64;1741191;82;27540;-56
2021/01/03 10:51:59;;;;;;;8.53;2.37;;;;;;;10.14;68.46;101751.97;1771590;80;25427;-56
2021/01/03 10:54:28;;;;;;;8.45;3.08;;;;;;;10.11;67.75;101760.24;1741273;82;25666;-56
2021/01/03 10:56:58;;;;;;;11.33;3.12;;;;;;;10.06;68.17;101754.34;1770028;80;25652;-56
2021/01/03 10:59:27;;;;;;;9.68;2.62;;;;;;;10.08;68.68;101753.27;1741045;82;25704;-56
2021/01/03 11:01:55;;;;;;;12.37;2.90;;;;;;;10.13;67.88;101743.02;1769794;80;27581;-56
2021/01/03 11:04:24;;;;;;;9.80;3.05;;;;;;;10.15;67.35;101742.94;1713956;83;26063;-56
2021/01/03 11:06:56;;;;;;;9.30;4.62;;;;;;;10.14;68.14;101739.37;1688357;83;25680;-56
2021/01/03 11:09:32;;;;;;;6.70;2.92;;;;;;;10.13;67.80;101739.48;1720527;83;25524;-56
2021/01/03 11:12:07;;;;;;;8.93;3.45;;;;;;;10.10;68.22;101739.70;1715087;83;25747;-57
2021/01/03 11:14:35;;;;;;;6.60;3.80;;;;;;;10.09;68.22;101744.23;1720577;83;28518;-56
2021/01/03 11:17:10;;;;;;;10.70;3.12;;;;;;;10.07;68.12;101739.94;1720344;83;26300;-56
2021/01/03 11:19:39;;;;;;;11.55;3.22;;;;;;;10.08;68.43;101741.66;1714896;83;26023;-56
2021/01/03 11:22:12;;;;;;;10.78;3.50;;;;;;;10.08;68.88;101736.28;1748327;80;26493;-56
2021/01/03 11:24:42;;;;;;;11.35;3.65;;;;;;;10.12;68.87;101729.70;1715339;83;26102;-56
2021/01/03 11:27:15;;;;;;;20.50;4.22;;;;;;;10.14;68.97;101729.95;1782218;80;27534;-56
2021/01/03 11:29:45;;;;;;;6.50;3.25;;;;;;;10.15;69.01;101728.15;1781067;80;25469;-57
2021/01/03 11:32:18;;;;;;;7.65;3.17;;;;;;;10.11;68.50;101719.45;1782185;80;25679;-56
2021/01/03 11:34:47;;;;;;;12.80;3.22;;;;;;;10.10;68.83;101719.53;1780750;80;26495;-57
2021/01/03 11:37:19;;;;;;;15.30;3.77;;;;;;;10.13;68.76;101721.52;1737113;81;25778;-56
2021/01/03 11:39:49;;;;;;;14.35;4.60;;;;;;;10.13;69.01;101719.33;1738671;81;27535;-56
2021/01/03 11:42:31;;;;;;;8.60;4.47;;;;;;;10.15;69.18;101722.77;1733515;81;26392;-56
2021/01/03 11:45:00;;;;;;;10.45;3.98;;;;;;;10.12;68.77;101719.83;1720476;82;25691;-56
2021/01/03 11:47:31;;;;;;;10.48;4.42;;;;;;;10.09;68.74;101714.66;1715388;83;26556;-56
2021/01/03 11:49:59;;;;;;;16.20;4.58;;;;;;;10.08;68.79;101701.33;1720606;83;25511;-57
2021/01/03 11:52:31;;;;;;;11.33;4.05;;;;;;;10.07;68.70;101707.67;1720467;83;27592;-57
2021/01/03 11:55:01;;;;;;;9.43;5.33;;;;;;;10.01;68.74;101711.16;1734809;81;26318;-56
2021/01/03 11:57:28;;;;;;;13.40;3.90;;;;;;;10.01;68.87;101721.91;1739712;82;26388;-56
2021/01/03 11:59:56;;;;;;;9.88;3.60;;;;;;;10.00;68.89;101719.34;1736418;81;25746;-55
2021/01/03 12:02:24;;;;;;;17.80;5.22;;;;;;;9.97;68.97;101719.55;1772313;79;25673;-55
2021/01/03 12:04:52;;;;;;;14.73;6.20;;;;;;;9.95;68.89;101717.48;1709032;83;27182;-56
2021/01/03 12:07:21;;;;;;;18.07;7.40;;;;;;;9.94;69.09;101717.10;1726291;82;25609;-56